createdAt,value
2023-03-14T00:00:09.674Z,3.16
2023-03-14T00:03:37.680Z,3.11
2023-03-14T00:06:48.941Z,3.29
2023-03-14T00:09:56.458Z,2.88
2023-03-14T00:13:04.787Z,2.82
2023-03-14T00:20:46.419Z,2.93
2023-03-14T00:24:29.154Z,3.01
2023-03-14T00:27:39.170Z,2.95
2023-03-14T00:38:00.662Z,3.05
2023-03-14T00:45:39.061Z,2.98
2023-03-14T00:49:58.333Z,2.97
2023-03-14T00:56:32.951Z,3.12
2023-03-14T00:59:56.224Z,3.10
2023-03-14T01:03:37.326Z,3.25
2023-03-14T01:06:58.238Z,3.11
2023-03-14T01:10:10.138Z,3.07
2023-03-14T01:13:31.644Z,3.14
2023-03-14T01:16:38.493Z,2.72
2023-03-14T01:20:21.404Z,2.88
2023-03-14T01:28:18.426Z,2.72
2023-03-14T01:31:26.900Z,2.69
2023-03-14T01:34:41.472Z,2.48
2023-03-14T01:38:01.250Z,2.73
2023-03-14T01:41:23.933Z,2.73
2023-03-14T01:53:16.488Z,2.68
2023-03-14T01:57:14.085Z,2.54
2023-03-14T02:00:57.186Z,2.37
2023-03-14T02:04:26.333Z,2.44
2023-03-14T02:08:00.271Z,2.67
2023-03-14T02:11:22.035Z,2.46
2023-03-14T02:14:44.286Z,2.41
2023-03-14T02:18:11.400Z,2.59
2023-03-14T02:22:14.004Z,2.54
2023-03-14T02:26:10.001Z,2.03
2023-03-14T02:30:17.223Z,2.15
2023-03-14T02:34:14.966Z,1.79
2023-03-14T02:37:29.082Z,1.93
2023-03-14T02:40:36.751Z,2.20
2023-03-14T02:43:41.824Z,2.26
2023-03-14T02:46:51.425Z,2.22
2023-03-14T02:50:38.186Z,2.06
2023-03-14T02:54:28.505Z,2.10
2023-03-14T02:58:01.334Z,2.26
2023-03-14T03:01:41.344Z,2.09
2023-03-14T03:05:11.050Z,2.19
2023-03-14T03:09:01.742Z,2.30
2023-03-14T03:12:29.897Z,2.41
2023-03-14T03:15:57.975Z,2.42
2023-03-14T03:19:32.552Z,2.37
2023-03-14T03:23:15.065Z,2.38
2023-03-14T03:26:49.675Z,2.41
2023-03-14T03:30:20.618Z,2.25
2023-03-14T03:33:53.643Z,1.83
2023-03-14T03:37:27.788Z,2.17
2023-03-14T03:40:57.817Z,1.75
2023-03-14T03:44:16.742Z,1.66
2023-03-14T03:47:59.882Z,2.03
2023-03-14T03:51:38.132Z,1.72
2023-03-14T03:54:46.504Z,1.82
2023-03-14T03:58:18.024Z,1.90
2023-03-14T04:01:57.141Z,1.95
2023-03-14T04:06:03.378Z,1.97
2023-03-14T04:09:30.336Z,2.02
2023-03-14T04:13:31.670Z,1.76
2023-03-14T04:18:06.957Z,1.99
2023-03-14T04:21:40.951Z,2.01
2023-03-14T04:30:01.297Z,1.72
2023-03-14T04:34:51.721Z,1.88
2023-03-14T04:38:47.955Z,2.06
2023-03-14T04:43:00.082Z,1.92
2023-03-14T04:47:32.559Z,2.01
2023-03-14T04:55:12.378Z,1.96
2023-03-14T04:58:49.944Z,1.73
2023-03-14T05:02:50.489Z,1.64
2023-03-14T05:07:34.329Z,1.77
2023-03-14T05:11:43.542Z,1.77
2023-03-14T05:16:23.282Z,1.87
2023-03-14T05:20:14.413Z,2.13
2023-03-14T05:28:43.729Z,2.18
2023-03-14T05:33:40.109Z,1.99
2023-03-14T05:41:38.158Z,2.21
2023-03-14T05:45:30.234Z,2.09
2023-03-14T05:49:09.473Z,2.45
2023-03-14T05:53:15.332Z,2.87
2023-03-14T05:56:52.276Z,2.99
2023-03-14T06:00:53.498Z,3.18
2023-03-14T06:04:14.612Z,3.40
2023-03-14T06:07:55.880Z,3.44
2023-03-14T06:11:13.145Z,3.90
2023-03-14T06:14:20.444Z,4.10
2023-03-14T06:17:33.155Z,4.15
2023-03-14T06:20:41.735Z,4.29
2023-03-14T06:23:48.505Z,4.60
2023-03-14T06:26:58.088Z,4.68
2023-03-14T06:30:07.137Z,4.84
2023-03-14T06:33:12.406Z,5.05
2023-03-14T06:36:19.567Z,5.26
2023-03-14T06:39:40.250Z,5.44
2023-03-14T06:43:56.715Z,5.63
2023-03-14T06:47:19.325Z,5.76
2023-03-14T06:54:35.655Z,6.14
2023-03-14T06:58:01.624Z,6.21
2023-03-14T07:02:17.134Z,6.17
2023-03-14T07:06:17.527Z,6.34
2023-03-14T07:14:43.189Z,6.79
2023-03-14T07:17:53.309Z,6.85
2023-03-14T07:21:29.210Z,6.93
2023-03-14T07:25:42.115Z,7.10
2023-03-14T07:29:57.643Z,7.36
2023-03-14T07:33:51.466Z,7.49
2023-03-14T07:37:23.497Z,7.66
2023-03-14T07:41:22.998Z,7.59
2023-03-14T07:45:19.276Z,7.76
2023-03-14T07:49:10.331Z,8.12
2023-03-14T07:52:25.131Z,8.45
2023-03-14T07:56:06.357Z,8.62
2023-03-14T07:59:28.553Z,8.79
2023-03-14T08:02:34.859Z,8.96
2023-03-14T08:05:45.689Z,9.08
2023-03-14T08:08:57.242Z,9.14
2023-03-14T08:12:03.310Z,9.36
2023-03-14T08:15:08.924Z,9.43
2023-03-14T08:18:32.024Z,9.50
2023-03-14T08:21:50.803Z,9.66
2023-03-14T08:25:44.378Z,9.83
2023-03-14T08:29:32.878Z,9.92
2023-03-14T08:34:12.817Z,10.09
2023-03-14T08:37:44.526Z,10.28
2023-03-14T08:41:17.934Z,10.26
2023-03-14T08:44:22.106Z,10.40
2023-03-14T08:47:27.416Z,10.44
2023-03-14T08:50:31.911Z,10.39
2023-03-14T08:53:42.111Z,10.50
2023-03-14T08:56:53.473Z,10.57
2023-03-14T08:59:58.087Z,10.65
2023-03-14T09:03:02.066Z,10.79
2023-03-14T09:06:08.059Z,10.88
2023-03-14T09:09:12.369Z,11.02
2023-03-14T09:12:25.132Z,11.10
2023-03-14T09:15:29.557Z,11.19
2023-03-14T09:18:34.159Z,11.24
2023-03-14T09:21:42.492Z,11.31
2023-03-14T09:24:52.708Z,11.42
2023-03-14T09:27:58.236Z,11.47
2023-03-14T09:31:09.047Z,11.50
2023-03-14T09:34:13.066Z,11.58
2023-03-14T09:37:17.945Z,11.64
2023-03-14T09:40:25.306Z,11.67
2023-03-14T09:43:36.842Z,11.69
2023-03-14T09:46:46.011Z,11.75
2023-03-14T09:49:51.264Z,11.76
2023-03-14T09:53:02.385Z,11.79
2023-03-14T09:56:11.831Z,11.85
2023-03-14T09:59:17.734Z,11.88
2023-03-14T10:02:24.724Z,11.92
2023-03-14T10:05:30.987Z,11.93
2023-03-14T10:08:36.367Z,12.00
2023-03-14T10:11:42.427Z,12.06
2023-03-14T10:15:37.450Z,12.07
2023-03-14T10:18:47.320Z,12.17
2023-03-14T10:22:20.102Z,12.23
2023-03-14T10:25:29.840Z,12.34
2023-03-14T10:28:42.801Z,12.41
2023-03-14T10:31:55.051Z,12.43
2023-03-14T10:35:20.799Z,12.47
2023-03-14T10:38:30.584Z,12.57
2023-03-14T10:41:35.996Z,12.61
2023-03-14T10:44:44.579Z,12.62
2023-03-14T10:47:52.685Z,12.64
2023-03-14T10:51:04.661Z,12.73
2023-03-14T10:54:21.215Z,12.76
2023-03-14T10:57:25.611Z,12.86
2023-03-14T11:00:34.296Z,12.93
2023-03-14T11:04:10.828Z,13.01
2023-03-14T11:08:07.614Z,13.02
2023-03-14T11:11:41.706Z,13.20
2023-03-14T11:15:33.257Z,13.23
2023-03-14T11:19:21.910Z,13.36
2023-03-14T11:23:40.246Z,13.45
2023-03-14T11:27:11.572Z,13.60
2023-03-14T11:31:14.453Z,13.72
2023-03-14T11:34:54.742Z,13.78
2023-03-14T11:38:41.994Z,13.88
2023-03-14T11:42:17.868Z,13.93
2023-03-14T11:45:47.053Z,14.01
2023-03-14T11:49:13.334Z,14.05
2023-03-14T11:52:45.531Z,14.16
2023-03-14T11:56:06.797Z,14.19
2023-03-14T11:59:34.513Z,14.34
2023-03-14T12:02:53.527Z,14.42
2023-03-14T12:06:13.851Z,14.52
2023-03-14T12:09:21.554Z,14.64
2023-03-14T12:12:29.949Z,14.65
2023-03-14T12:15:41.772Z,14.72
2023-03-14T12:18:46.909Z,14.74
2023-03-14T12:21:55.336Z,14.84
2023-03-14T12:25:06.028Z,14.89
2023-03-14T12:28:22.490Z,14.95
2023-03-14T12:32:41.656Z,14.96
2023-03-14T12:40:34.055Z,15.11
2023-03-14T12:43:40.405Z,15.22
2023-03-14T12:46:47.087Z,15.24
2023-03-14T12:49:56.576Z,15.21
2023-03-14T12:53:40.988Z,15.23
2023-03-14T12:57:09.528Z,15.20
2023-03-14T13:00:23.426Z,15.27
2023-03-14T13:03:38.862Z,15.24
2023-03-14T13:06:55.452Z,15.29
2023-03-14T13:10:36.947Z,15.17
2023-03-14T13:13:48.029Z,15.21
2023-03-14T13:16:56.946Z,15.22
2023-03-14T13:20:08.279Z,15.21
2023-03-14T13:23:22.780Z,15.18
2023-03-14T13:26:38.155Z,15.14
2023-03-14T13:29:44.285Z,15.09
2023-03-14T13:32:53.111Z,15.07
2023-03-14T13:36:00.046Z,15.10
2023-03-14T13:44:32.423Z,15.04
2023-03-14T13:47:42.710Z,15.01
2023-03-14T13:50:57.834Z,15.04
2023-03-14T13:54:04.073Z,15.10
2023-03-14T13:57:08.733Z,15.11
2023-03-14T14:00:21.817Z,15.11
2023-03-14T14:03:26.841Z,15.21
2023-03-14T14:06:38.012Z,15.26
2023-03-14T14:09:49.982Z,15.33
2023-03-14T14:13:01.548Z,15.35
2023-03-14T14:16:56.017Z,15.31
2023-03-14T14:20:04.459Z,15.33
2023-03-14T14:23:13.912Z,15.24
2023-03-14T14:26:23.014Z,15.23
2023-03-14T14:29:29.723Z,15.21
2023-03-14T14:32:38.980Z,15.17
2023-03-14T14:35:42.594Z,15.15
2023-03-14T14:39:07.026Z,15.11
2023-03-14T14:42:17.661Z,15.13
2023-03-14T14:45:25.265Z,15.12
2023-03-14T14:48:30.270Z,15.10
2023-03-14T14:51:37.220Z,15.08
2023-03-14T15:00:22.195Z,15.08
2023-03-14T15:03:30.141Z,15.05
2023-03-14T15:12:18.666Z,14.95
2023-03-14T15:15:22.972Z,14.94
2023-03-14T15:18:31.467Z,14.95
2023-03-14T15:21:35.325Z,14.91
2023-03-14T15:25:04.414Z,14.85
2023-03-14T15:28:30.068Z,14.87
2023-03-14T15:31:33.930Z,14.83
2023-03-14T15:34:39.833Z,14.77
2023-03-14T15:37:45.026Z,14.72
2023-03-14T15:40:50.007Z,14.66
2023-03-14T15:43:56.576Z,14.59
2023-03-14T15:47:05.048Z,14.53
2023-03-14T15:50:13.229Z,14.49
2023-03-14T15:53:18.176Z,14.48
2023-03-14T15:56:29.916Z,14.44
2023-03-14T15:59:36.537Z,14.45
2023-03-14T16:03:06.872Z,14.44
2023-03-14T16:06:10.830Z,14.54
2023-03-14T16:09:16.191Z,14.54
2023-03-14T16:12:21.185Z,14.57
2023-03-14T16:15:27.921Z,14.55
2023-03-14T16:18:35.000Z,14.51
2023-03-14T16:21:39.986Z,14.48
2023-03-14T16:25:02.981Z,14.36
2023-03-14T16:36:46.972Z,14.12
2023-03-14T16:41:00.715Z,14.10
2023-03-14T16:44:34.454Z,14.03
2023-03-14T16:48:15.988Z,14.00
2023-03-14T16:52:44.676Z,13.86
2023-03-14T16:56:56.339Z,13.83
2023-03-14T17:00:34.955Z,13.82
2023-03-14T17:04:22.419Z,13.71
2023-03-14T17:08:01.049Z,13.66
2023-03-14T17:11:33.740Z,13.54
2023-03-14T17:15:32.569Z,13.55
2023-03-14T17:18:49.908Z,13.52
2023-03-14T17:22:21.693Z,13.47
2023-03-14T17:25:43.251Z,13.48
2023-03-14T17:29:21.751Z,13.42
2023-03-14T17:32:41.544Z,13.25
2023-03-14T17:35:55.155Z,13.11
2023-03-14T17:38:59.256Z,13.13
2023-03-14T17:42:05.414Z,12.98
2023-03-14T17:45:12.040Z,12.86
2023-03-14T17:48:17.222Z,12.89
2023-03-14T17:51:44.565Z,12.78
2023-03-14T17:55:21.545Z,12.73
2023-03-14T17:58:47.610Z,12.65
2023-03-14T18:02:18.682Z,12.56
2023-03-14T18:05:26.043Z,12.51
2023-03-14T18:09:05.563Z,12.37
2023-03-14T18:12:20.841Z,12.15
2023-03-14T18:15:29.110Z,11.95
2023-03-14T18:18:38.824Z,11.74
2023-03-14T18:21:52.416Z,11.65
2023-03-14T18:25:28.646Z,11.61
2023-03-14T18:28:45.339Z,11.52
2023-03-14T18:32:05.653Z,11.42
2023-03-14T18:35:13.958Z,11.25
2023-03-14T18:38:23.752Z,11.24
2023-03-14T18:41:51.566Z,11.19
2023-03-14T18:45:24.145Z,11.10
2023-03-14T18:49:20.191Z,10.87
2023-03-14T18:52:28.728Z,10.71
2023-03-14T18:55:42.545Z,10.33
2023-03-14T18:59:17.174Z,10.46
2023-03-14T19:02:37.561Z,10.46
2023-03-14T19:05:45.035Z,10.47
2023-03-14T19:08:55.772Z,10.40
2023-03-14T19:12:02.034Z,10.36
2023-03-14T19:15:12.066Z,10.10
2023-03-14T19:18:29.717Z,10.02
2023-03-14T19:21:57.773Z,10.12
2023-03-14T19:25:07.514Z,10.08
2023-03-14T19:28:48.173Z,9.94
2023-03-14T19:32:02.010Z,9.94
2023-03-14T19:35:07.807Z,9.82
2023-03-14T19:42:59.645Z,9.64
2023-03-14T19:46:06.414Z,9.46
2023-03-14T19:49:14.762Z,9.20
2023-03-14T19:52:19.170Z,9.31
2023-03-14T19:55:25.440Z,9.30
2023-03-14T19:58:29.243Z,9.22
2023-03-14T20:01:36.139Z,8.82
2023-03-14T20:04:44.983Z,8.90
2023-03-14T20:07:49.861Z,8.87
2023-03-14T20:11:00.983Z,8.85
2023-03-14T20:14:05.206Z,8.98
2023-03-14T20:17:09.472Z,8.80
2023-03-14T20:20:18.217Z,8.82
2023-03-14T20:23:30.296Z,8.58
2023-03-14T20:26:50.538Z,8.40
2023-03-14T20:30:03.627Z,8.69
2023-03-14T20:33:08.181Z,8.57
2023-03-14T20:36:13.291Z,8.50
2023-03-14T20:39:22.771Z,8.59
2023-03-14T20:43:04.641Z,8.57
2023-03-14T20:46:13.266Z,8.68
2023-03-14T20:49:20.252Z,8.85
2023-03-14T20:52:27.967Z,8.67
2023-03-14T20:55:32.350Z,8.32
2023-03-14T20:58:49.210Z,8.55
2023-03-14T21:02:21.712Z,8.49
2023-03-14T21:05:38.545Z,8.41
2023-03-14T21:09:18.890Z,8.56
2023-03-14T21:17:00.942Z,8.53
2023-03-14T21:20:31.433Z,8.60
2023-03-14T21:24:05.043Z,8.67
2023-03-14T21:27:46.769Z,8.78
2023-03-14T21:31:33.299Z,9.00
2023-03-14T21:35:49.387Z,8.94
2023-03-14T21:39:37.641Z,9.09
2023-03-14T21:43:31.889Z,8.94
2023-03-14T21:47:24.181Z,9.15
2023-03-14T21:51:57.582Z,9.29
2023-03-14T21:56:34.530Z,9.10
2023-03-14T22:00:12.641Z,8.83
2023-03-14T22:03:35.877Z,8.91
2023-03-14T22:07:03.684Z,8.68
2023-03-14T22:10:47.236Z,8.94
2023-03-14T22:14:48.140Z,9.02
2023-03-14T22:19:11.307Z,8.91
2023-03-14T22:23:17.611Z,8.89
2023-03-14T22:26:34.377Z,8.59
2023-03-14T22:29:43.632Z,8.69
2023-03-14T22:32:55.544Z,8.73
2023-03-14T22:36:33.651Z,8.77
2023-03-14T22:40:18.696Z,8.86
2023-03-14T22:52:27.372Z,8.80
2023-03-14T22:56:06.938Z,8.91
2023-03-14T23:00:01.288Z,8.83
2023-03-14T23:04:36.067Z,9.02
2023-03-14T23:07:43.693Z,8.78
2023-03-14T23:11:16.093Z,8.70
2023-03-14T23:15:17.519Z,8.80
2023-03-14T23:19:01.196Z,8.46
2023-03-14T23:22:58.252Z,8.63
2023-03-14T23:26:47.246Z,8.71
2023-03-14T23:30:26.622Z,8.97
2023-03-14T23:33:59.977Z,8.75
2023-03-14T23:38:05.133Z,8.74
2023-03-14T23:41:55.955Z,8.82
2023-03-14T23:45:25.220Z,8.60
2023-03-14T23:49:24.788Z,8.35
2023-03-14T23:54:21.679Z,8.60
2023-03-14T23:58:33.901Z,8.66
